createdAt,value
2023-03-25T00:00:43.986Z,19.62
2023-03-25T00:06:57.358Z,19.47
2023-03-25T00:13:04.139Z,19.36
2023-03-25T00:19:05.944Z,19.50
2023-03-25T00:25:18.330Z,19.83
2023-03-25T00:31:19.926Z,20.03
2023-03-25T00:37:22.088Z,20.17
2023-03-25T00:43:23.587Z,20.20
2023-03-25T00:49:27.905Z,20.10
2023-03-25T00:55:29.471Z,20.09
2023-03-25T01:01:31.011Z,20.31
2023-03-25T01:07:32.774Z,20.38
2023-03-25T01:13:34.743Z,20.28
2023-03-25T01:19:36.359Z,20.19
2023-03-25T01:25:37.999Z,20.34
2023-03-25T01:31:40.470Z,20.35
2023-03-25T01:37:43.844Z,20.23
2023-03-25T01:44:05.891Z,20.22
2023-03-25T01:50:14.059Z,20.20
2023-03-25T01:56:19.442Z,19.73
2023-03-25T02:02:24.429Z,19.71
2023-03-25T02:08:26.178Z,19.68
2023-03-25T02:14:30.263Z,19.62
2023-03-25T02:20:40.976Z,19.91
2023-03-25T02:27:26.672Z,20.10
2023-03-25T02:33:44.997Z,20.42
2023-03-25T02:40:06.420Z,20.19
2023-03-25T02:46:11.554Z,20.13
2023-03-25T02:52:37.433Z,20.28
2023-03-25T02:58:39.718Z,20.33
2023-03-25T03:04:50.981Z,20.45
2023-03-25T03:11:01.964Z,20.29
2023-03-25T03:17:12.847Z,20.25
2023-03-25T03:23:53.985Z,19.82
2023-03-25T03:30:18.316Z,19.59
2023-03-25T03:36:23.609Z,19.37
2023-03-25T03:42:38.345Z,19.60
2023-03-25T03:48:43.638Z,19.71
2023-03-25T03:54:49.001Z,19.89
2023-03-25T04:00:53.852Z,19.98
2023-03-25T04:07:06.595Z,19.81
2023-03-25T04:13:11.128Z,19.88
2023-03-25T04:19:18.996Z,19.55
2023-03-25T04:25:24.731Z,19.14
2023-03-25T04:31:30.646Z,19.03
2023-03-25T04:37:36.352Z,19.03
2023-03-25T04:43:38.655Z,18.68
2023-03-25T04:49:44.222Z,18.74
2023-03-25T04:55:48.751Z,19.01
2023-03-25T05:01:52.037Z,18.85
2023-03-25T05:07:54.735Z,18.98
2023-03-25T05:13:56.389Z,18.92
2023-03-25T05:19:57.950Z,19.24
2023-03-25T05:26:02.285Z,19.04
2023-03-25T05:32:04.091Z,19.03
2023-03-25T05:38:07.980Z,19.14
2023-03-25T05:44:14.102Z,19.37
2023-03-25T05:50:16.165Z,19.19
2023-03-25T05:56:19.487Z,19.26
2023-03-25T06:02:21.468Z,19.34
2023-03-25T06:08:27.375Z,19.26
2023-03-25T06:14:31.879Z,19.02
2023-03-25T06:20:33.837Z,19.24
2023-03-25T06:26:35.513Z,19.53
2023-03-25T06:32:37.747Z,19.65
2023-03-25T06:38:39.841Z,19.74
2023-03-25T06:44:46.560Z,20.24
2023-03-25T06:51:08.626Z,20.18
2023-03-25T06:57:10.297Z,20.37
2023-03-25T07:03:12.597Z,20.44
2023-03-25T07:09:14.877Z,20.52
2023-03-25T07:15:16.481Z,20.61
2023-03-25T07:21:19.076Z,20.67
2023-03-25T07:27:20.566Z,20.51
2023-03-25T07:33:30.429Z,20.10
2023-03-25T07:39:31.902Z,20.48
2023-03-25T07:45:44.615Z,20.94
2023-03-25T07:51:46.425Z,21.12
2023-03-25T07:57:47.959Z,21.31
2023-03-25T08:03:49.599Z,21.40
2023-03-25T08:09:51.288Z,21.37
2023-03-25T08:15:53.439Z,21.08
2023-03-25T08:21:55.386Z,21.09
2023-03-25T08:27:57.127Z,21.18
2023-03-25T08:34:00.258Z,20.69
2023-03-25T08:40:06.912Z,20.84
2023-03-25T08:46:08.545Z,20.93
2023-03-25T08:52:10.180Z,21.22
2023-03-25T08:58:11.743Z,21.32
2023-03-25T09:04:13.411Z,21.75
2023-03-25T09:10:15.271Z,22.25
2023-03-25T09:16:17.149Z,22.42
2023-03-25T09:22:18.695Z,22.60
2023-03-25T09:28:20.401Z,22.71
2023-03-25T09:34:22.035Z,23.38
2023-03-25T09:40:24.061Z,22.78
2023-03-25T09:46:26.032Z,23.00
2023-03-25T09:52:35.201Z,22.70
2023-03-25T09:58:43.939Z,22.98
2023-03-25T10:05:17.859Z,22.75
2023-03-25T10:11:49.325Z,22.47
2023-03-25T10:18:14.149Z,22.56
2023-03-25T10:24:25.017Z,22.83
2023-03-25T10:30:50.882Z,23.99
2023-03-25T10:36:57.506Z,24.06
2023-03-25T10:43:14.263Z,23.69
2023-03-25T10:49:21.496Z,23.59
2023-03-25T10:55:25.918Z,24.12
2023-03-25T11:01:46.232Z,24.24
2023-03-25T11:07:50.952Z,23.49
2023-03-25T11:13:56.614Z,23.68
2023-03-25T11:20:07.221Z,23.21
2023-03-25T11:26:29.769Z,22.43
2023-03-25T11:32:39.052Z,22.36
2023-03-25T11:38:40.973Z,22.97
2023-03-25T11:44:49.795Z,23.34
2023-03-25T11:50:57.480Z,23.88
2023-03-25T11:56:59.160Z,24.02
2023-03-25T12:03:02.643Z,24.36
2023-03-25T12:09:09.025Z,23.96
2023-03-25T12:15:38.055Z,22.97
2023-03-25T12:22:09.094Z,21.75
2023-03-25T12:28:55.937Z,20.76
2023-03-25T12:35:14.668Z,20.72
2023-03-25T12:41:31.018Z,21.67
2023-03-25T12:47:32.469Z,22.20
2023-03-25T12:53:52.754Z,22.54
2023-03-25T13:00:14.375Z,21.92
2023-03-25T13:06:43.432Z,22.01
2023-03-25T13:12:53.346Z,21.95
2023-03-25T13:19:13.493Z,21.55
2023-03-25T13:25:25.007Z,21.59
2023-03-25T13:31:35.479Z,21.98
2023-03-25T13:37:46.235Z,22.58
2023-03-25T13:43:55.456Z,23.12
2023-03-25T13:50:03.129Z,23.20
2023-03-25T13:56:40.930Z,22.22
2023-03-25T14:03:11.948Z,21.78
2023-03-25T14:09:48.690Z,21.82
2023-03-25T14:15:59.355Z,21.50
2023-03-25T14:22:07.723Z,21.71
2023-03-25T14:28:16.113Z,21.54
2023-03-25T14:34:25.518Z,21.99
2023-03-25T14:41:02.229Z,22.66
2023-03-25T14:47:15.375Z,22.83
2023-03-25T14:53:18.029Z,22.75
2023-03-25T14:59:26.413Z,22.41
2023-03-25T15:05:29.445Z,22.26
2023-03-25T15:11:35.619Z,21.93
2023-03-25T15:17:48.522Z,21.67
2023-03-25T15:23:59.636Z,20.87
2023-03-25T15:30:32.796Z,21.03
2023-03-25T15:36:52.991Z,21.19
2023-03-25T15:43:05.391Z,20.67
2023-03-25T15:49:38.111Z,21.08
2023-03-25T15:55:45.839Z,20.76
2023-03-25T16:01:49.137Z,20.33
2023-03-25T16:07:51.040Z,19.91
2023-03-25T16:14:07.767Z,19.88
2023-03-25T16:20:14.821Z,19.63
2023-03-25T16:26:37.548Z,19.55
2023-03-25T16:32:39.044Z,19.69
2023-03-25T16:38:40.958Z,19.91
2023-03-25T16:44:42.718Z,20.03
2023-03-25T16:50:45.197Z,20.00
2023-03-25T16:57:09.633Z,19.48
2023-03-25T17:03:41.982Z,19.45
2023-03-25T17:09:50.057Z,19.23
2023-03-25T17:15:56.110Z,19.01
2023-03-25T17:22:31.602Z,18.89
2023-03-25T17:28:42.613Z,18.88
2023-03-25T17:34:55.195Z,18.73
2023-03-25T17:41:05.779Z,18.77
2023-03-25T17:47:12.944Z,18.88
2023-03-25T17:53:14.478Z,18.49
2023-03-25T17:59:18.659Z,18.41
2023-03-25T18:05:20.577Z,18.37
2023-03-25T18:11:25.093Z,18.17
2023-03-25T18:17:26.614Z,18.09
2023-03-25T18:23:28.292Z,18.27
2023-03-25T18:29:30.529Z,18.26
2023-03-25T18:35:33.326Z,18.48
2023-03-25T18:41:34.983Z,18.44
2023-03-25T18:47:37.738Z,18.62
2023-03-25T18:53:40.209Z,18.81
2023-03-25T18:59:41.809Z,18.94
2023-03-25T19:05:44.607Z,19.02
2023-03-25T19:11:46.693Z,18.84
2023-03-25T19:17:48.643Z,18.77
2023-03-25T19:23:51.449Z,18.38
2023-03-25T19:29:55.266Z,18.09
2023-03-25T19:36:00.429Z,18.19
2023-03-25T19:42:03.600Z,18.33
2023-03-25T19:48:05.337Z,18.48
2023-03-25T19:54:09.261Z,18.37
2023-03-25T20:00:16.862Z,18.25
2023-03-25T20:06:19.162Z,17.74
2023-03-25T20:12:21.112Z,17.75
2023-03-25T20:18:24.423Z,17.66
2023-03-25T20:24:26.141Z,17.34
2023-03-25T20:30:43.480Z,17.06
2023-03-25T20:36:55.877Z,16.78
2023-03-25T20:42:58.289Z,16.64
2023-03-25T20:49:02.649Z,16.56
2023-03-25T20:55:05.156Z,16.38
2023-03-25T21:01:08.523Z,16.32
2023-03-25T21:07:11.231Z,16.27
2023-03-25T21:13:14.167Z,16.49
2023-03-25T21:19:15.859Z,16.55
2023-03-25T21:25:20.433Z,16.54
2023-03-25T21:31:24.931Z,16.86
2023-03-25T21:37:29.147Z,17.14
2023-03-25T21:43:35.124Z,17.20
2023-03-25T21:49:37.597Z,17.09
2023-03-25T21:55:39.272Z,17.04
2023-03-25T22:01:41.053Z,17.02
2023-03-25T22:07:43.028Z,16.91
2023-03-25T22:13:45.165Z,16.99
2023-03-25T22:19:50.431Z,16.73
2023-03-25T22:25:52.107Z,16.32
2023-03-25T22:31:55.134Z,16.54
2023-03-25T22:37:56.672Z,16.40
2023-03-25T22:43:58.512Z,16.45
2023-03-25T22:50:00.329Z,16.43
2023-03-25T22:56:02.946Z,16.13
2023-03-25T23:02:04.804Z,16.23
2023-03-25T23:08:06.879Z,16.19
2023-03-25T23:14:11.461Z,16.17
2023-03-25T23:20:13.015Z,16.08
2023-03-25T23:26:20.990Z,15.83
2023-03-25T23:32:23.018Z,15.62
2023-03-25T23:38:24.571Z,15.68
2023-03-25T23:44:26.767Z,15.69
2023-03-25T23:50:28.304Z,15.85
2023-03-25T23:56:30.691Z,15.89
